Time;durP1;ratioP1;P1;durP2;ratioP2;P2;SDS_P1;SDS_P2;PMS_P1;PMS_P2;Temp;Humidity;BMP_temperature;BMP_pressure;BME280_temperature;BME280_humidity;BME280_pressure;Samples;Min_cycle;Max_cycle;Signal;HPM_P1;HPM_P2
2023/07/20 00:03:40;;;;;;;9.60;4.00;;;;;;;17.58;90.93;99853.30;223168;1270;140456;-95
2023/07/20 00:08:40;;;;;;;10.10;4.90;;;;;;;17.58;92.31;99856.87;223600;1270;138549;-95
2023/07/20 00:14:08;;;;;;;8.30;4.80;;;;;;;17.54;92.68;99862.38;223240;1270;140004;-96
2023/07/20 00:19:12;;;;;;;9.40;4.60;;;;;;;17.57;92.34;99854.52;223107;1270;140987;-95
2023/07/20 00:24:13;;;;;;;13.10;5.20;;;;;;;17.59;92.79;99848.81;223719;1270;138906;-96
2023/07/20 00:34:27;;;;;;;10.30;6.10;;;;;;;17.58;92.29;99856.23;223501;1267;138813;-85
2023/07/20 00:39:28;;;;;;;8.30;4.50;;;;;;;17.58;93.34;99867.04;223130;1270;141646;-85
2023/07/20 00:44:28;;;;;;;16.10;4.50;;;;;;;17.58;92.85;99867.92;223656;1267;138584;-84
2023/07/20 00:49:29;;;;;;;13.30;5.30;;;;;;;17.59;92.80;99874.56;223275;1266;141868;-84
2023/07/20 00:54:30;;;;;;;9.10;4.00;;;;;;;17.58;94.00;99869.27;223686;1268;138743;-85
2023/07/20 00:59:30;;;;;;;10.70;5.60;;;;;;;17.58;93.17;99866.11;223181;1268;140344;-84
2023/07/20 01:04:31;;;;;;;10.30;6.20;;;;;;;17.57;94.38;99873.81;223673;1266;138793;-85
2023/07/20 01:09:38;;;;;;;10.80;5.90;;;;;;;17.54;94.58;99867.15;223173;1268;140659;-85
2023/07/20 01:14:39;;;;;;;10.50;6.60;;;;;;;17.50;96.19;99878.88;223640;1267;139133;-85
2023/07/20 01:19:40;;;;;;;12.80;5.90;;;;;;;17.43;97.14;99875.23;223248;1271;140988;-85
2023/07/20 01:25:10;;;;;;;13.50;7.40;;;;;;;17.38;97.80;99874.23;223732;1267;139613;-85
2023/07/20 01:30:45;;;;;;;13.00;6.70;;;;;;;17.33;98.60;99869.95;223106;1267;140510;-86
2023/07/20 01:35:59;;;;;;;11.60;6.30;;;;;;;17.24;98.53;99871.23;223625;1267;139390;-85
2023/07/20 01:41:00;;;;;;;15.20;7.00;;;;;;;17.18;98.50;99865.34;223058;1267;142158;-85
2023/07/20 01:46:00;;;;;;;13.80;7.10;;;;;;;17.17;98.36;99859.50;223655;1267;138663;-86
2023/07/20 01:51:01;;;;;;;12.70;5.90;;;;;;;17.12;98.72;99850.95;223108;1266;142097;-87
2023/07/20 01:56:01;;;;;;;15.80;7.10;;;;;;;17.04;99.17;99847.52;223756;1267;95921;-85
2023/07/20 02:01:01;;;;;;;11.30;6.40;;;;;;;16.96;99.04;99854.36;223126;1267;141214;-86
2023/07/20 02:06:02;;;;;;;16.00;7.20;;;;;;;16.96;98.50;99857.95;223648;1267;138668;-85
2023/07/20 02:11:02;;;;;;;11.40;6.90;;;;;;;16.91;99.71;99867.25;223106;1266;142055;-85
2023/07/20 02:16:03;;;;;;;11.50;5.80;;;;;;;16.85;99.74;99869.96;223665;1266;138903;-85
2023/07/20 02:21:03;;;;;;;12.00;7.10;;;;;;;16.84;99.51;99869.41;223094;1267;141434;-86
2023/07/20 02:26:04;;;;;;;10.80;6.20;;;;;;;16.80;99.70;99871.58;223825;1267;95885;-86
2023/07/20 02:31:04;;;;;;;11.60;6.70;;;;;;;16.79;99.17;99879.94;223077;1267;141756;-86
2023/07/20 02:36:05;;;;;;;12.40;6.70;;;;;;;16.77;99.20;99887.30;223671;1267;139441;-85
2023/07/20 02:41:05;;;;;;;12.50;7.20;;;;;;;16.72;99.65;99881.76;223095;1268;142544;-85
2023/07/20 02:46:05;;;;;;;13.30;7.10;;;;;;;16.66;99.76;99881.81;223636;1268;140349;-86
2023/07/20 02:51:07;;;;;;;13.00;7.90;;;;;;;16.62;99.86;99883.17;223118;1267;140318;-86
2023/07/20 02:56:07;;;;;;;14.40;6.90;;;;;;;16.60;99.99;99877.50;223697;1267;96239;-87
2023/07/20 03:01:08;;;;;;;12.50;7.20;;;;;;;16.58;99.97;99873.83;223154;1267;140667;-87
2023/07/20 03:06:09;;;;;;;15.30;8.00;;;;;;;16.56;100.00;99866.88;223662;1270;139379;-86
2023/07/20 03:11:09;;;;;;;14.10;8.20;;;;;;;16.53;100.00;99878.61;223062;1271;141489;-87
2023/07/20 03:16:12;;;;;;;13.30;7.50;;;;;;;16.48;100.00;99886.17;223650;1269;139044;-86
2023/07/20 03:21:13;;;;;;;14.80;8.40;;;;;;;16.47;100.00;99885.95;223164;1267;142853;-86
2023/07/20 03:26:13;;;;;;;11.70;8.20;;;;;;;16.46;100.00;99886.13;223786;1268;95904;-85
2023/07/20 03:31:14;;;;;;;13.80;8.00;;;;;;;16.44;100.00;99891.91;223105;1267;140509;-86
2023/07/20 03:36:15;;;;;;;14.40;7.70;;;;;;;16.41;100.00;99890.92;223616;1267;139180;-86
2023/07/20 03:41:16;;;;;;;14.70;7.90;;;;;;;16.43;100.00;99896.68;223035;1270;142634;-86
2023/07/20 03:46:16;;;;;;;11.70;6.20;;;;;;;16.45;100.00;99893.00;223676;1270;139265;-87
2023/07/20 03:51:17;;;;;;;13.40;8.00;;;;;;;16.49;100.00;99889.90;223107;1267;141082;-88
2023/07/20 03:56:17;;;;;;;11.90;7.10;;;;;;;16.52;100.00;99892.77;223759;1267;96079;-86
2023/07/20 04:01:18;;;;;;;12.10;6.50;;;;;;;16.52;100.00;99898.01;223170;1267;141497;-86
2023/07/20 04:06:18;;;;;;;11.10;6.30;;;;;;;16.54;100.00;99894.05;223661;1271;138897;-86
2023/07/20 04:11:18;;;;;;;10.70;6.50;;;;;;;16.56;100.00;99899.10;223118;1267;140914;-86
2023/07/20 04:16:20;;;;;;;10.10;6.00;;;;;;;16.62;100.00;99894.36;223666;1267;139487;-85
2023/07/20 04:21:20;;;;;;;11.80;6.80;;;;;;;16.66;100.00;99901.59;223080;1270;143189;-85
2023/07/20 04:26:20;;;;;;;13.50;7.90;;;;;;;16.69;100.00;99892.87;223806;1267;95902;-86
2023/07/20 04:31:21;;;;;;;14.40;7.30;;;;;;;16.71;100.00;99890.12;223138;1267;142077;-86
2023/07/20 04:36:21;;;;;;;13.20;8.40;;;;;;;16.70;100.00;99889.81;223650;1267;139354;-85
2023/07/20 04:41:22;;;;;;;12.30;7.90;;;;;;;16.70;100.00;99884.28;223109;1267;141290;-85
2023/07/20 04:46:22;;;;;;;15.90;8.60;;;;;;;16.72;100.00;99883.52;223653;1267;140020;-86
2023/07/20 04:51:22;;;;;;;10.90;7.00;;;;;;;16.75;100.00;99886.45;223135;1267;142727;-85
2023/07/20 04:56:24;;;;;;;11.60;7.50;;;;;;;16.80;100.00;99886.27;223776;1267;95818;-85
2023/07/20 05:01:26;;;;;;;15.00;7.90;;;;;;;16.91;100.00;99891.18;223056;1267;142613;-80
2023/07/20 05:06:26;;;;;;;14.00;8.30;;;;;;;17.01;100.00;99891.89;223619;1267;138955;-80
2023/07/20 05:11:27;;;;;;;14.70;7.70;;;;;;;17.09;100.00;99893.61;223094;1267;140834;-79
2023/07/20 05:16:28;;;;;;;11.60;7.50;;;;;;;17.22;100.00;99896.23;223628;1267;140155;-81
2023/07/20 05:21:28;;;;;;;12.00;6.60;;;;;;;17.33;100.00;99909.79;223120;1266;142185;-80
2023/07/20 05:26:29;;;;;;;12.20;7.70;;;;;;;17.48;100.00;99907.77;223629;1266;139450;-81
2023/07/20 05:31:31;;;;;;;11.20;6.40;;;;;;;17.67;100.00;99903.38;223133;1267;141564;-80
2023/07/20 05:36:32;;;;;;;12.90;7.10;;;;;;;17.91;100.00;99903.63;223608;1267;138750;-81
2023/07/20 05:41:32;;;;;;;15.90;6.60;;;;;;;18.22;100.00;99900.45;223102;1266;142586;-81
2023/07/20 05:46:33;;;;;;;10.80;6.60;;;;;;;18.50;99.85;99911.28;223640;1267;139515;-81
2023/07/20 05:51:33;;;;;;;13.90;7.20;;;;;;;18.75;99.08;99909.41;223065;1266;143115;-82
2023/07/20 05:56:33;;;;;;;10.30;6.50;;;;;;;19.08;98.69;99909.44;223567;1266;139729;-81
2023/07/20 06:01:34;;;;;;;9.70;5.50;;;;;;;19.49;97.77;99912.25;223220;1266;140502;-82
2023/07/20 06:06:34;;;;;;;9.50;4.60;;;;;;;19.90;95.57;99914.02;223602;1266;139147;-82
2023/07/20 06:11:35;;;;;;;8.00;4.50;;;;;;;20.28;93.40;99917.88;223029;1267;140705;-82
2023/07/20 06:16:35;;;;;;;10.00;4.00;;;;;;;20.69;91.78;99919.98;223585;1266;139171;-83
2023/07/20 06:21:36;;;;;;;8.20;3.40;;;;;;;21.14;89.97;99926.01;223087;1267;142336;-82
2023/07/20 06:26:39;;;;;;;6.30;3.80;;;;;;;21.64;86.61;99926.68;223544;1266;139144;-82
2023/07/20 06:31:39;;;;;;;9.50;3.50;;;;;;;22.09;84.24;99927.70;223127;1266;141443;-84
2023/07/20 06:36:40;;;;;;;8.20;3.80;;;;;;;22.62;83.47;99931.10;223263;1266;138922;-83
2023/07/20 06:41:40;;;;;;;6.10;2.70;;;;;;;23.11;80.58;99935.02;222952;1267;140249;-84
2023/07/20 06:46:41;;;;;;;6.40;3.70;;;;;;;23.68;78.33;99932.16;223430;1268;139287;-86
2023/07/20 06:51:41;;;;;;;6.50;2.50;;;;;;;24.15;75.50;99935.91;222987;1267;141284;-87
2023/07/20 06:56:42;;;;;;;8.80;2.80;;;;;;;24.56;72.29;99936.38;223511;1268;138935;-87
2023/07/20 07:01:42;;;;;;;4.10;2.00;;;;;;;24.88;69.12;99935.39;223038;1266;141514;-86
2023/07/20 07:06:43;;;;;;;6.00;2.60;;;;;;;24.99;66.00;99942.43;223594;1267;139716;-86
2023/07/20 07:11:43;;;;;;;5.60;2.40;;;;;;;24.93;65.26;99945.19;223068;1266;139869;-88
2023/07/20 07:16:45;;;;;;;4.10;2.20;;;;;;;25.03;65.24;99945.33;223505;1266;138374;-86
2023/07/20 07:21:45;;;;;;;6.00;2.80;;;;;;;25.23;63.33;99946.69;223117;1266;139691;-85
2023/07/20 07:26:46;;;;;;;7.20;2.50;;;;;;;25.12;62.32;99949.10;223628;1267;137793;-85
2023/07/20 07:31:49;;;;;;;3.70;2.20;;;;;;;25.02;62.34;99948.83;223174;1266;140337;-88
2023/07/20 07:36:50;;;;;;;3.90;1.80;;;;;;;25.10;62.96;99946.95;223589;1267;138350;-88
2023/07/20 07:41:51;;;;;;;9.20;2.80;;;;;;;25.15;61.48;99948.37;222961;1267;139764;-89
2023/07/20 07:46:53;;;;;;;5.40;2.40;;;;;;;25.01;60.51;99945.50;223532;1266;138936;-89
2023/07/20 07:51:53;;;;;;;4.20;2.60;;;;;;;24.85;59.79;99948.03;223098;1267;141094;-89
2023/07/20 07:56:54;;;;;;;5.80;2.90;;;;;;;24.75;61.07;99944.53;223531;1268;138472;-91
2023/07/20 08:01:54;;;;;;;7.00;3.10;;;;;;;24.71;59.75;99940.35;223154;1266;139608;-88
2023/07/20 08:06:55;;;;;;;6.00;2.70;;;;;;;24.31;58.88;99940.39;223613;1266;137622;-89
2023/07/20 08:11:55;;;;;;;5.80;2.50;;;;;;;24.37;60.17;99948.36;222977;1270;139599;-88
2023/07/20 08:16:56;;;;;;;4.80;2.30;;;;;;;24.56;60.50;99945.23;223574;1267;137844;-89
2023/07/20 08:21:57;;;;;;;12.50;3.00;;;;;;;24.56;59.03;99945.59;223062;1266;140796;-89
2023/07/20 08:26:57;;;;;;;6.50;2.50;;;;;;;24.23;58.82;99949.88;223636;1266;138084;-87
2023/07/20 08:31:57;;;;;;;6.40;3.10;;;;;;;24.03;63.02;99953.17;223311;1266;139731;-85
2023/07/20 08:36:58;;;;;;;7.90;2.50;;;;;;;23.87;63.74;99954.99;223621;1266;138288;-84
2023/07/20 08:42:04;;;;;;;8.20;3.20;;;;;;;23.67;64.29;99962.55;223193;1266;140037;-85
2023/07/20 08:47:06;;;;;;;9.80;3.40;;;;;;;23.17;65.12;99969.32;223627;1267;137950;-84
2023/07/20 08:52:07;;;;;;;7.10;3.20;;;;;;;22.62;66.93;99974.45;223195;1266;141146;-89
2023/07/20 08:57:08;;;;;;;11.00;4.00;;;;;;;22.24;68.56;99973.89;223777;1267;138652;-94
2023/07/20 09:02:13;;;;;;;7.70;3.60;;;;;;;21.92;70.09;99987.20;223403;1266;140042;-95
2023/07/20 09:07:14;;;;;;;6.00;3.30;;;;;;;21.57;71.69;100001.27;224058;1266;136487;-96
2023/07/20 09:12:17;;;;;;;9.30;3.50;;;;;;;21.27;73.15;100007.21;223669;1266;140035;-93
2023/07/20 09:17:19;;;;;;;11.90;3.30;;;;;;;20.81;75.13;100019.84;223840;1266;138803;-94
2023/07/20 09:22:20;;;;;;;8.90;2.70;;;;;;;20.33;75.97;100011.75;223100;1267;140917;-89
2023/07/20 09:27:20;;;;;;;5.90;2.50;;;;;;;20.02;76.85;100004.36;223720;1267;139159;-88
2023/07/20 09:32:22;;;;;;;6.30;2.40;;;;;;;19.89;77.27;100002.70;223264;1266;143036;-90
2023/07/20 09:37:23;;;;;;;5.10;2.60;;;;;;;19.95;79.13;100010.96;223741;1266;138780;-91
2023/07/20 09:42:25;;;;;;;6.80;3.10;;;;;;;20.09;82.16;100004.66;222847;1267;412562;-87
2023/07/20 09:47:27;;;;;;;6.80;2.70;;;;;;;20.46;82.34;100008.66;223651;1267;138888;-89
2023/07/20 09:52:29;;;;;;;6.80;2.90;;;;;;;20.93;83.41;100004.52;223141;1267;141683;-88
2023/07/20 09:57:32;;;;;;;8.70;3.80;;;;;;;21.70;86.01;100006.98;223655;1267;138697;-90
2023/07/20 10:02:33;;;;;;;10.30;4.30;;;;;;;22.65;84.44;100001.40;223071;1266;142012;-87
2023/07/20 10:07:40;;;;;;;8.80;3.30;;;;;;;23.37;80.29;100004.64;223780;1266;107195;-89
2023/07/20 10:12:41;;;;;;;7.80;3.60;;;;;;;23.85;76.85;100003.45;223045;1267;140858;-88
2023/07/20 10:18:03;;;;;;;5.00;2.90;;;;;;;24.22;77.80;100001.11;223746;1266;139059;-87
2023/07/20 10:23:04;;;;;;;5.20;2.50;;;;;;;25.06;75.62;100001.08;223154;1266;140927;-87
2023/07/20 10:28:06;;;;;;;4.20;2.30;;;;;;;25.71;73.14;99999.18;223691;1266;139351;-88
2023/07/20 10:33:07;;;;;;;4.80;2.40;;;;;;;26.31;71.40;99994.81;223144;1266;140828;-89
2023/07/20 10:38:08;;;;;;;7.40;2.60;;;;;;;26.68;67.60;99995.83;223877;1267;95982;-90
2023/07/20 10:43:10;;;;;;;5.70;3.20;;;;;;;26.98;65.98;99993.26;223152;1266;141074;-91
2023/07/20 10:48:25;;;;;;;5.30;2.70;;;;;;;27.19;62.34;99989.92;223608;1267;138356;-87
2023/07/20 10:53:26;;;;;;;;;;;;;;;27.16;63.20;99977.58;223133;1266;140233;-87
2023/07/20 10:58:36;;;;;;;6.80;2.50;;;;;;;27.49;63.63;99979.23;223751;1266;124923;-88
2023/07/20 11:03:42;;;;;;;3.50;1.70;;;;;;;27.91;62.83;99967.34;222848;1266;138903;-88
2023/07/20 11:08:43;;;;;;;4.60;2.00;;;;;;;28.15;59.26;99967.88;223583;1267;138266;-88
2023/07/20 11:13:55;;;;;;;3.70;2.00;;;;;;;28.18;58.27;99963.93;223249;1267;141854;-86
2023/07/20 11:18:56;;;;;;;3.40;1.60;;;;;;;28.17;56.80;99953.21;223119;1267;141195;-86
2023/07/20 11:23:57;;;;;;;4.50;1.70;;;;;;;28.52;55.13;99946.72;223696;1267;138046;-87
2023/07/20 11:28:58;;;;;;;3.90;1.60;;;;;;;28.81;52.28;99948.48;223195;1267;139655;-87
2023/07/20 11:33:58;;;;;;;3.00;1.40;;;;;;;28.98;51.81;99939.70;223772;1267;137912;-86
2023/07/20 11:39:00;;;;;;;1.60;1.00;;;;;;;29.04;49.76;99943.83;223178;1266;140798;-88
2023/07/20 11:44:00;;;;;;;1.90;1.10;;;;;;;28.91;49.00;99943.19;223781;1267;107828;-88
2023/07/20 11:49:01;;;;;;;0.90;0.60;;;;;;;29.04;48.09;99946.41;223192;1267;140500;-92
2023/07/20 11:54:03;;;;;;;2.40;0.80;;;;;;;29.06;47.53;99951.31;223753;1267;138285;-89
2023/07/20 11:59:04;;;;;;;1.40;0.90;;;;;;;29.35;48.42;99952.39;223200;1267;140783;-91
2023/07/20 12:04:06;;;;;;;1.20;0.90;;;;;;;29.54;47.42;99954.80;223751;1266;137931;-89
2023/07/20 12:09:14;;;;;;;1.10;0.90;;;;;;;29.51;44.69;99948.98;223028;1267;140126;-89
2023/07/20 12:14:15;;;;;;;1.30;1.10;;;;;;;29.46;45.94;99944.17;223802;1267;105310;-94
2023/07/20 12:19:16;;;;;;;2.90;1.50;;;;;;;29.70;46.21;99943.48;223170;1267;140489;-86
2023/07/20 12:24:18;;;;;;;2.80;1.00;;;;;;;29.92;44.97;99937.29;223823;1266;139021;-89
2023/07/20 12:29:18;;;;;;;4.00;1.10;;;;;;;29.96;43.21;99931.39;223168;1267;139518;-89
2023/07/20 12:34:19;;;;;;;1.90;1.20;;;;;;;29.65;43.34;99929.27;223739;1267;138166;-91
2023/07/20 12:39:20;;;;;;;2.90;0.90;;;;;;;29.65;42.84;99928.13;223062;1266;140299;-89
2023/07/20 12:44:20;;;;;;;1.20;0.80;;;;;;;29.58;41.52;99940.41;223943;1267;96732;-94
2023/07/20 12:49:21;;;;;;;2.80;0.70;;;;;;;29.36;43.72;99955.08;223206;1267;139394;-91
2023/07/20 12:54:21;;;;;;;0.80;0.70;;;;;;;28.88;42.41;99966.63;223661;1267;139282;-91
2023/07/20 12:59:22;;;;;;;1.00;0.70;;;;;;;28.22;43.47;99961.16;223085;1267;140189;-94
2023/07/20 13:04:28;;;;;;;0.80;0.70;;;;;;;28.03;44.12;99962.98;223739;1267;137872;-91
2023/07/20 13:09:29;;;;;;;2.30;1.10;;;;;;;27.95;44.48;99961.20;223051;1267;139947;-91
2023/07/20 13:14:37;;;;;;;2.00;0.90;;;;;;;28.11;45.00;99965.50;223939;1267;96584;-91
2023/07/20 13:19:43;;;;;;;2.00;1.00;;;;;;;28.12;45.28;99970.28;223199;1267;139478;-91
2023/07/20 13:25:15;;;;;;;1.70;1.10;;;;;;;28.36;45.69;99966.74;223637;1267;138071;-90
2023/07/20 13:30:28;;;;;;;;;;;;;;;;;;;;;
2023/07/20 13:35:28;;;;;;;1.00;0.90;;;;;;;28.03;45.52;99959.08;223551;1266;138291;-91
2023/07/20 13:40:33;;;;;;;1.40;1.10;;;;;;;28.11;45.10;99952.93;223261;1266;139009;-92
2023/07/20 13:45:33;;;;;;;2.50;1.10;;;;;;;28.03;45.26;99952.29;223618;1267;139252;-91
2023/07/20 13:50:37;;;;;;;3.50;2.00;;;;;;;28.34;46.42;99955.04;223194;1266;139774;-89
2023/07/20 13:55:38;;;;;;;2.10;1.20;;;;;;;28.70;45.45;99960.61;223659;1268;137628;-89
2023/07/20 14:00:39;;;;;;;1.00;0.90;;;;;;;28.63;44.98;99958.44;223065;1267;139417;-92
2023/07/20 14:05:40;;;;;;;3.30;1.20;;;;;;;28.70;44.96;99959.74;223759;1267;140227;-92
2023/07/20 14:10:43;;;;;;;1.30;0.90;;;;;;;28.64;45.13;99956.89;222979;1268;139167;-91
2023/07/20 14:15:44;;;;;;;1.90;1.00;;;;;;;28.59;45.19;99959.92;223551;1270;139769;-91
2023/07/20 14:21:02;;;;;;;6.00;1.20;;;;;;;28.20;44.70;99965.48;223130;1267;138865;-92
2023/07/20 14:26:11;;;;;;;3.00;1.20;;;;;;;27.44;46.03;99987.05;223670;1268;108054;-90
2023/07/20 14:31:12;;;;;;;3.50;1.10;;;;;;;27.13;47.47;99994.80;222848;1267;139707;-91
2023/07/20 14:36:17;;;;;;;5.00;1.20;;;;;;;27.07;48.49;99993.81;223579;1271;137975;-93
2023/07/20 14:41:20;;;;;;;1.30;0.80;;;;;;;26.96;48.80;99999.86;222447;1271;139845;-92
2023/07/20 14:46:24;;;;;;;0.60;0.50;;;;;;;26.50;48.22;100018.13;223390;1269;139513;-94
2023/07/20 14:51:24;;;;;;;1.90;0.60;;;;;;;25.88;48.08;100017.19;222666;1270;139711;-92
2023/07/20 14:56:26;;;;;;;1.60;0.60;;;;;;;25.60;49.04;100013.62;223448;1270;95844;-91
2023/07/20 15:01:27;;;;;;;0.60;0.50;;;;;;;25.48;48.45;100009.03;222380;1270;139031;-92
2023/07/20 15:06:33;;;;;;;1.20;0.50;;;;;;;25.16;48.44;100010.06;223343;1269;138636;-95
2023/07/20 15:11:35;;;;;;;1.20;0.60;;;;;;;24.82;48.71;100003.35;222713;1270;139560;-92
2023/07/20 15:16:59;;;;;;;1.90;0.60;;;;;;;24.62;49.54;100002.30;223487;1270;138823;-91
2023/07/20 15:22:00;;;;;;;2.80;0.70;;;;;;;24.52;49.85;100004.44;223033;1268;139219;-91
2023/07/20 15:27:02;;;;;;;1.00;0.60;;;;;;;24.51;50.44;100001.55;223747;1267;96375;-90
2023/07/20 15:32:04;;;;;;;3.70;0.90;;;;;;;24.40;50.41;100008.73;223160;1266;140363;-90
2023/07/20 15:37:05;;;;;;;1.80;0.90;;;;;;;24.23;51.04;100007.61;223693;1267;138917;-92
2023/07/20 15:42:06;;;;;;;2.60;0.80;;;;;;;24.26;51.56;100007.22;223057;1266;139284;-90
2023/07/20 15:47:15;;;;;;;1.40;1.00;;;;;;;24.20;51.89;100003.22;223704;1267;138539;-91
2023/07/20 15:52:17;;;;;;;0.80;0.60;;;;;;;24.04;52.07;100002.33;223133;1271;140065;-90
2023/07/20 15:57:17;;;;;;;1.70;0.90;;;;;;;23.97;52.87;100006.66;223770;1266;96087;-89
2023/07/20 16:02:19;;;;;;;2.30;0.80;;;;;;;23.99;53.33;100009.61;223345;1267;139709;-90
2023/07/20 16:07:19;;;;;;;5.10;1.00;;;;;;;23.89;54.17;100012.89;223655;1268;137893;-92
2023/07/20 16:12:25;;;;;;;2.40;1.00;;;;;;;23.82;54.88;100003.52;223123;1267;139908;-92
2023/07/20 16:17:26;;;;;;;2.90;1.10;;;;;;;23.78;55.55;100006.80;223579;1266;138204;-91
2023/07/20 16:22:27;;;;;;;1.40;1.10;;;;;;;23.66;55.39;100014.70;222880;1271;140156;-93
2023/07/20 16:27:28;;;;;;;1.20;0.80;;;;;;;23.62;55.26;100016.50;223578;1267;138308;-90
2023/07/20 16:32:32;;;;;;;3.00;1.10;;;;;;;23.48;55.25;100006.83;223161;1267;140238;-91
2023/07/20 16:37:35;;;;;;;5.10;1.30;;;;;;;23.35;55.97;100008.52;223601;1268;137912;-90
2023/07/20 16:42:39;;;;;;;1.90;0.80;;;;;;;23.23;56.34;100013.39;223105;1267;139209;-91
2023/07/20 16:47:40;;;;;;;1.30;1.00;;;;;;;23.13;56.26;100003.70;223607;1268;138006;-91
2023/07/20 16:52:41;;;;;;;2.10;1.00;;;;;;;22.98;56.93;100007.20;223134;1268;141135;-88
2023/07/20 16:57:41;;;;;;;3.30;1.10;;;;;;;22.80;57.59;100004.73;223652;1268;138014;-90
2023/07/20 17:02:42;;;;;;;2.60;1.10;;;;;;;22.59;58.01;99999.12;223286;1267;141257;-90
2023/07/20 17:07:43;;;;;;;1.30;1.10;;;;;;;22.51;57.93;99988.98;223621;1267;137791;-90
2023/07/20 17:12:43;;;;;;;1.30;0.70;;;;;;;22.42;58.08;99989.79;223217;1267;141249;-89
2023/07/20 17:17:44;;;;;;;1.20;1.00;;;;;;;22.26;58.06;99994.08;223754;1267;137975;-91
2023/07/20 17:22:44;;;;;;;4.70;1.10;;;;;;;22.11;58.59;99997.55;223047;1267;139534;-89
2023/07/20 17:27:45;;;;;;;3.30;1.00;;;;;;;21.94;58.74;100000.65;223721;1267;138033;-93
2023/07/20 17:32:46;;;;;;;3.80;1.10;;;;;;;21.72;58.63;100000.21;223196;1268;139807;-89
2023/07/20 17:37:47;;;;;;;5.20;1.40;;;;;;;21.53;59.27;100000.27;223719;1268;138245;-90
2023/07/20 17:42:49;;;;;;;2.50;1.20;;;;;;;21.42;59.98;100003.11;223176;1267;140657;-89
2023/07/20 17:47:49;;;;;;;11.00;1.20;;;;;;;21.28;60.03;100006.94;223609;1267;138187;-90
2023/07/20 17:52:50;;;;;;;3.90;1.20;;;;;;;21.15;60.96;100008.42;223059;1268;139699;-89
2023/07/20 17:57:51;;;;;;;2.70;0.90;;;;;;;21.00;61.12;100011.04;223624;1267;139069;-90
2023/07/20 18:02:54;;;;;;;1.90;1.00;;;;;;;20.88;61.54;100010.30;223216;1266;140440;-90
2023/07/20 18:07:57;;;;;;;3.30;1.10;;;;;;;20.76;62.30;100012.89;223658;1266;137867;-89
2023/07/20 18:12:58;;;;;;;2.30;1.00;;;;;;;20.65;61.80;100020.34;223142;1266;139852;-89
2023/07/20 18:17:59;;;;;;;2.70;1.20;;;;;;;20.47;61.26;100020.42;223739;1268;138136;-89
2023/07/20 18:23:03;;;;;;;1.50;1.00;;;;;;;20.32;59.77;100019.76;223092;1267;141064;-90
2023/07/20 18:28:07;;;;;;;2.20;0.90;;;;;;;20.21;59.56;100021.21;223747;1267;138011;-90
2023/07/20 18:33:07;;;;;;;1.60;0.80;;;;;;;20.08;59.22;100027.21;223231;1267;139644;-89
2023/07/20 18:38:09;;;;;;;1.50;0.70;;;;;;;19.97;59.64;100028.13;223729;1266;137928;-90
2023/07/20 18:43:10;;;;;;;1.40;0.80;;;;;;;19.78;59.73;100029.73;223091;1267;141110;-89
2023/07/20 18:48:11;;;;;;;1.70;1.20;;;;;;;19.60;60.45;100028.25;223717;1266;138737;-90
2023/07/20 18:53:12;;;;;;;3.10;1.00;;;;;;;19.43;61.22;100033.88;223212;1266;141062;-89
2023/07/20 18:58:13;;;;;;;1.20;1.00;;;;;;;19.29;62.16;100036.56;223573;1269;138503;-88
2023/07/20 19:03:16;;;;;;;2.70;1.10;;;;;;;19.14;63.27;100037.63;223243;1266;139814;-89
2023/07/20 19:08:17;;;;;;;4.90;1.20;;;;;;;18.97;64.62;100040.99;223609;1268;138264;-89
2023/07/20 19:13:18;;;;;;;1.60;0.90;;;;;;;18.81;65.15;100050.94;223048;1267;139891;-89
2023/07/20 19:18:26;;;;;;;1.90;1.20;;;;;;;18.65;65.57;100049.82;223616;1268;138060;-90
2023/07/20 19:23:27;;;;;;;3.90;1.30;;;;;;;18.48;66.62;100062.30;222938;1268;139094;-89
2023/07/20 19:28:28;;;;;;;2.20;1.30;;;;;;;18.32;67.24;100068.06;223668;1267;138065;-89
2023/07/20 19:33:29;;;;;;;3.30;1.30;;;;;;;18.16;67.63;100072.34;223156;1267;140897;-89
2023/07/20 19:38:32;;;;;;;3.60;1.80;;;;;;;18.03;68.56;100076.81;223796;1267;95899;-89
2023/07/20 19:43:33;;;;;;;2.40;1.40;;;;;;;17.88;69.51;100079.72;223007;1270;140481;-89
2023/07/20 19:48:37;;;;;;;4.70;1.70;;;;;;;17.76;70.00;100082.96;223625;1266;138202;-89
2023/07/20 19:53:53;;;;;;;4.60;1.50;;;;;;;17.61;70.60;100091.17;223166;1267;140090;-89
2023/07/20 19:58:53;;;;;;;4.40;1.80;;;;;;;17.46;71.53;100095.80;223556;1267;138139;-89
2023/07/20 20:04:00;;;;;;;4.60;1.70;;;;;;;17.32;71.84;100096.89;223283;1267;139472;-89
2023/07/20 20:09:04;;;;;;;5.00;1.70;;;;;;;17.20;72.57;100097.55;223112;1267;141696;-89
2023/07/20 20:14:15;;;;;;;3.80;1.70;;;;;;;17.06;73.32;100096.31;223615;1267;139473;-89
2023/07/20 20:19:25;;;;;;;4.60;1.60;;;;;;;16.92;74.04;100098.11;222770;1271;141369;-89
2023/07/20 20:24:26;;;;;;;3.30;1.50;;;;;;;16.81;74.58;100101.77;223506;1267;138900;-89
2023/07/20 20:29:28;;;;;;;3.10;1.20;;;;;;;16.66;75.01;100098.08;223077;1270;139774;-89
2023/07/20 20:39:48;;;;;;;7.10;1.40;;;;;;;16.42;76.22;100104.21;222872;1267;140619;-89
2023/07/20 20:44:49;;;;;;;2.40;1.40;;;;;;;16.32;76.16;100097.15;223744;1270;95873;-89
2023/07/20 20:50:19;;;;;;;2.80;1.60;;;;;;;16.22;76.62;100103.91;222870;1271;140933;-89
2023/07/20 20:55:56;;;;;;;3.60;1.60;;;;;;;16.08;77.44;100111.29;223586;1267;139288;-89
2023/07/20 21:01:40;;;;;;;5.80;2.20;;;;;;;15.95;78.33;100111.67;222816;1267;140552;-89
2023/07/20 21:06:51;;;;;;;4.90;1.90;;;;;;;15.80;78.70;100119.10;223452;1267;139083;-89
2023/07/20 21:17:45;;;;;;;3.90;2.00;;;;;;;15.56;79.25;100114.23;223328;1267;138857;-89
2023/07/20 21:22:46;;;;;;;3.20;1.70;;;;;;;15.45;79.51;100117.63;222683;1267;140458;-89
2023/07/20 21:39:14;;;;;;;5.40;2.90;;;;;;;15.09;82.23;100130.18;222183;1266;1050449;-88
2023/07/20 21:44:19;;;;;;;3.40;1.90;;;;;;;15.01;82.74;100133.84;223261;1267;391210;-89
2023/07/20 21:49:29;;;;;;;4.50;2.20;;;;;;;14.92;82.40;100137.59;222862;1267;139988;-88
2023/07/20 21:54:40;;;;;;;7.20;1.90;;;;;;;14.83;82.97;100138.56;223198;1271;138967;-88
2023/07/20 22:05:39;;;;;;;4.00;1.80;;;;;;;14.62;83.93;100147.08;223183;1269;139040;-88
2023/07/20 22:10:56;;;;;;;;;;;;;;;;;;;;;
2023/07/20 22:16:27;;;;;;;2.60;1.60;;;;;;;14.44;84.84;100144.40;223428;1270;106791;-88
2023/07/20 22:27:17;;;;;;;4.20;1.60;;;;;;;14.27;85.06;100149.06;223386;1266;139114;-88
2023/07/20 22:32:24;;;;;;;6.20;1.90;;;;;;;14.20;85.22;100156.07;222810;1267;140394;-88
2023/07/20 22:37:50;;;;;;;;;;;;;;;14.13;85.41;100152.95;223631;1267;96369;-88
2023/07/20 22:48:43;;;;;;;5.10;1.80;;;;;;;13.99;86.02;100157.23;223542;1266;140151;-88
2023/07/20 22:53:56;;;;;;;7.70;3.10;;;;;;;13.92;86.23;100157.23;222927;1268;140605;-88
2023/07/20 22:59:15;;;;;;;4.30;2.30;;;;;;;13.87;86.32;100158.44;223402;1266;139627;-88
2023/07/20 23:04:18;;;;;;;6.20;2.50;;;;;;;13.79;86.19;100160.06;223661;1266;96085;-88
2023/07/20 23:09:28;;;;;;;5.30;3.00;;;;;;;13.73;86.44;100158.36;222958;1267;140292;-88
2023/07/20 23:14:28;;;;;;;5.30;2.00;;;;;;;13.66;86.50;100160.54;223528;1267;139966;-88
2023/07/20 23:19:31;;;;;;;5.80;2.60;;;;;;;13.59;86.67;100160.51;223005;1266;140122;-88
2023/07/20 23:24:44;;;;;;;3.70;2.00;;;;;;;13.51;86.80;100159.20;223658;1266;138649;-88
2023/07/20 23:30:13;;;;;;;10.30;2.60;;;;;;;13.45;87.44;100160.73;222828;1266;142031;-88
2023/07/20 23:35:43;;;;;;;3.70;1.90;;;;;;;13.39;87.63;100163.13;223729;1266;105961;-88
2023/07/20 23:40:54;;;;;;;4.40;2.20;;;;;;;13.34;87.46;100164.33;223056;1270;140289;-88
2023/07/20 23:46:20;;;;;;;5.20;2.50;;;;;;;13.30;88.15;100165.06;223584;1267;138643;-88
2023/07/20 23:51:41;;;;;;;5.40;2.20;;;;;;;13.26;88.49;100162.48;222922;1267;141012;-88
2023/07/20 23:57:07;;;;;;;5.40;2.20;;;;;;;13.23;87.88;100158.70;223619;1266;138610;-88
